Time;durP1;ratioP1;P1;durP2;ratioP2;P2;SDS_P1;SDS_P2;PMS_P1;PMS_P2;Temp;Humidity;BMP_temperature;BMP_pressure;BME280_temperature;BME280_humidity;BME280_pressure;Samples;Min_cycle;Max_cycle;Signal;HPM_P1;HPM_P2
2024/04/21 00:00:31;;;;;;;;;;;;;;;;;;5568892;25;20284;-77
2024/04/21 00:02:57;;;;;;;;;;;;;;;;;;5601731;25;19926;-76
2024/04/21 00:05:23;;;;;;;;;;;;;;;;;;5571972;25;19933;-76
2024/04/21 00:07:49;;;;;;;;;;;;;;;;;;5606049;25;19934;-76
2024/04/21 00:10:15;;;;;;;;;;;;;;;;;;5605634;25;19938;-76
2024/04/21 00:12:41;;;;;;;;;;;;;;;;;;5605906;25;19934;-76
2024/04/21 00:15:07;;;;;;;;;;;;;;;;;;5605827;25;19932;-76
2024/04/21 00:17:33;;;;;;;;;;;;;;;;;;5605536;25;20319;-76
2024/04/21 00:19:58;;;;;;;;;;;;;;;;;;5572448;25;20030;-77
2024/04/21 00:22:24;;;;;;;;;;;;;;;;;;5605841;25;19926;-76
2024/04/21 00:24:50;;;;;;;;;;;;;;;;;;5605380;25;19989;-76
2024/04/21 00:27:16;;;;;;;;;;;;;;;;;;5605599;25;19926;-73
2024/04/21 00:29:42;;;;;;;;;;;;;;;;;;5605678;25;19934;-74
2024/04/21 00:32:08;;;;;;;;;;;;;;;;;;5571550;25;19934;-76
2024/04/21 00:34:34;;;;;;;;;;;;;;;;;;5605684;25;19935;-75
2024/04/21 00:37:00;;;;;;;;;;;;;;;;;;5605757;25;19927;-77
2024/04/21 00:39:26;;;;;;;;;;;;;;;;;;5605222;25;19930;-78
2024/04/21 00:41:52;;;;;;;;;;;;;;;;;;5605299;25;19927;-77
2024/04/21 00:44:18;;;;;;;;;;;;;;;;;;5605239;25;19933;-77
2024/04/21 00:46:44;;;;;;;;;;;;;;;;;;5571280;25;20327;-76
2024/04/21 00:49:10;;;;;;;;;;;;;;;;;;5605178;25;19926;-73
2024/04/21 00:51:36;;;;;;;;;;;;;;;;;;5605067;25;19933;-74
2024/04/21 00:54:02;;;;;;;;;;;;;;;;;;5604517;25;19933;-75
2024/04/21 00:56:28;;;;;;;;;;;;;;;;;;5571408;25;19927;-74
2024/04/21 00:58:53;;;;;;;;;;;;;;;;;;5604224;25;19945;-73
2024/04/21 01:01:19;;;;;;;;;;;;;;;;;;5604821;25;19993;-74
2024/04/21 01:03:45;;;;;;;;;;;;;;;;;;5604613;25;19926;-74
2024/04/21 01:06:11;;;;;;;;;;;;;;;;;;5570644;25;20323;-74
2024/04/21 01:08:37;;;;;;;;;;;;;;;;;;5604608;25;19926;-74
2024/04/21 01:11:03;;;;;;;;;;;;;;;;;;5570902;25;19933;-75
2024/04/21 01:13:29;;;;;;;;;;;;;;;;;;5604188;25;19994;-74
2024/04/21 01:15:55;;;;;;;;;;;;;;;;;;5603850;25;19926;-74
2024/04/21 01:18:21;;;;;;;;;;;;;;;;;;5604396;25;20323;-74
2024/04/21 01:20:47;;;;;;;;;;;;;;;;;;5604156;25;19928;-75
2024/04/21 01:23:13;;;;;;;;;;;;;;;;;;5570784;25;19935;-74
2024/04/21 01:25:39;;;;;;;;;;;;;;;;;;5571092;25;19926;-74
2024/04/21 01:28:05;;;;;;;;;;;;;;;;;;5570385;25;19926;-74
2024/04/21 01:30:32;;;;;;;;;;;;;;;;;;5604064;25;19941;-73
2024/04/21 01:32:58;;;;;;;;;;;;;;;;;;5570766;25;19927;-74
2024/04/21 01:35:24;;;;;;;;;;;;;;;;;;5603801;25;19927;-74
2024/04/21 01:37:50;;;;;;;;;;;;;;;;;;5604384;25;19934;-74
2024/04/21 01:40:16;;;;;;;;;;;;;;;;;;5604353;25;19926;-74
2024/04/21 01:42:42;;;;;;;;;;;;;;;;;;5603785;25;19935;-74
2024/04/21 01:45:08;;;;;;;;;;;;;;;;;;5604457;25;19933;-74
2024/04/21 01:47:34;;;;;;;;;;;;;;;;;;5604499;25;19926;-75
2024/04/21 01:50:00;;;;;;;;;;;;;;;;;;5603884;25;20373;-75
2024/04/21 01:52:25;;;;;;;;;;;;;;;;;;5604453;25;19931;-75
2024/04/21 01:54:51;;;;;;;;;;;;;;;;;;5605394;25;19971;-75
2024/04/21 01:57:17;;;;;;;;;;;;;;;;;;5570793;25;19933;-74
2024/04/21 01:59:43;;;;;;;;;;;;;;;;;;5604531;25;19956;-74
2024/04/21 02:02:09;;;;;;;;;;;;;;;;;;5603743;25;19933;-73
2024/04/21 02:04:35;;;;;;;;;;;;;;;;;;5604242;25;20371;-73
2024/04/21 02:07:01;;;;;;;;;;;;;;;;;;5570577;25;19997;-73
2024/04/21 02:09:27;;;;;;;;;;;;;;;;;;5603495;25;19933;-74
2024/04/21 02:11:53;;;;;;;;;;;;;;;;;;5570487;25;19934;-74
2024/04/21 02:14:19;;;;;;;;;;;;;;;;;;5603873;25;19927;-74
2024/04/21 02:16:45;;;;;;;;;;;;;;;;;;5603735;25;20319;-74
2024/04/21 02:19:11;;;;;;;;;;;;;;;;;;5603863;25;19927;-74
2024/04/21 02:21:37;;;;;;;;;;;;;;;;;;5603652;25;19926;-74
2024/04/21 02:24:03;;;;;;;;;;;;;;;;;;5569801;25;19927;-74
2024/04/21 02:26:29;;;;;;;;;;;;;;;;;;5568885;25;19934;-74
2024/04/21 02:28:55;;;;;;;;;;;;;;;;;;5603711;25;20323;-74
2024/04/21 02:31:21;;;;;;;;;;;;;;;;;;5603375;25;19939;-73
2024/04/21 02:33:46;;;;;;;;;;;;;;;;;;5603548;25;19956;-73
2024/04/21 02:36:12;;;;;;;;;;;;;;;;;;5603680;25;19926;-73
2024/04/21 02:38:38;;;;;;;;;;;;;;;;;;5603111;25;19937;-74
2024/04/21 02:41:04;;;;;;;;;;;;;;;;;;5603482;25;20055;-74
2024/04/21 02:43:30;;;;;;;;;;;;;;;;;;5530627;25;19927;-74
2024/04/21 02:45:56;;;;;;;;;;;;;;;;;;5527833;26;19935;-74
2024/04/21 02:48:22;;;;;;;;;;;;;;;;;;5528098;26;20312;-74
2024/04/21 02:50:48;;;;;;;;;;;;;;;;;;5528116;26;19934;-74
2024/04/21 02:53:14;;;;;;;;;;;;;;;;;;5527504;26;19935;-74
2024/04/21 02:55:40;;;;;;;;;;;;;;;;;;5526246;26;19934;-74
2024/04/21 02:58:06;;;;;;;;;;;;;;;;;;5528140;26;19927;-74
2024/04/21 03:00:32;;;;;;;;;;;;;;;;;;5527721;26;19962;-73
2024/04/21 03:02:58;;;;;;;;;;;;;;;;;;5527977;26;19928;-73
2024/04/21 03:05:24;;;;;;;;;;;;;;;;;;5527594;26;19931;-73
2024/04/21 03:07:50;;;;;;;;;;;;;;;;;;5526193;26;19939;-73
2024/04/21 03:10:15;;;;;;;;;;;;;;;;;;5528025;26;19935;-73
2024/04/21 03:12:41;;;;;;;;;;;;;;;;;;5525554;26;19934;-73
2024/04/21 03:15:07;;;;;;;;;;;;;;;;;;5527921;26;19966;-73
2024/04/21 03:17:33;;;;;;;;;;;;;;;;;;5525984;26;19939;-74
2024/04/21 03:19:59;;;;;;;;;;;;;;;;;;5527492;25;20392;-73
2024/04/21 03:22:25;;;;;;;;;;;;;;;;;;5527779;26;19994;-73
2024/04/21 03:24:51;;;;;;;;;;;;;;;;;;5527675;26;19934;-73
2024/04/21 03:27:17;;;;;;;;;;;;;;;;;;5525381;26;20352;-73
2024/04/21 03:29:43;;;;;;;;;;;;;;;;;;5527733;26;20320;-73
2024/04/21 03:32:09;;;;;;;;;;;;;;;;;;5527709;26;20029;-73
2024/04/21 03:34:35;;;;;;;;;;;;;;;;;;5527103;26;19939;-73
2024/04/21 03:37:02;;;;;;;;;;;;;;;;;;5527417;26;19942;-73
2024/04/21 03:39:28;;;;;;;;;;;;;;;;;;5527139;25;19928;-73
2024/04/21 03:41:54;;;;;;;;;;;;;;;;;;5524717;25;19956;-73
2024/04/21 03:44:21;;;;;;;;;;;;;;;;;;5526938;26;19939;-73
2024/04/21 03:46:47;;;;;;;;;;;;;;;;;;5527115;25;19954;-73
2024/04/21 03:49:13;;;;;;;;;;;;;;;;;;5524958;26;20241;-72
2024/04/21 03:51:38;;;;;;;;;;;;;;;;;;5527071;26;19935;-73
2024/04/21 03:54:04;;;;;;;;;;;;;;;;;;5527027;26;19931;-73
2024/04/21 03:56:30;;;;;;;;;;;;;;;;;;5526388;26;19927;-73
2024/04/21 03:58:56;;;;;;;;;;;;;;;;;;5526900;26;19934;-73
2024/04/21 04:01:22;;;;;;;;;;;;;;;;;;5526825;26;20054;-73
2024/04/21 04:03:48;;;;;;;;;;;;;;;;;;5526239;26;19943;-73
2024/04/21 04:06:14;;;;;;;;;;;;;;;;;;5526777;26;19928;-73
2024/04/21 04:08:40;;;;;;;;;;;;;;;;;;5526418;26;19927;-74
2024/04/21 04:11:06;;;;;;;;;;;;;;;;;;5526734;26;19935;-74
2024/04/21 04:13:32;;;;;;;;;;;;;;;;;;5526652;25;20398;-74
2024/04/21 04:15:58;;;;;;;;;;;;;;;;;;5526032;26;19935;-74
2024/04/21 04:18:24;;;;;;;;;;;;;;;;;;5526594;26;19927;-73
2024/04/21 04:20:50;;;;;;;;;;;;;;;;;;5526525;26;19938;-73
2024/04/21 04:23:16;;;;;;;;;;;;;;;;;;5524196;26;20260;-73
2024/04/21 04:25:42;;;;;;;;;;;;;;;;;;5526451;26;19999;-73
2024/04/21 04:28:08;;;;;;;;;;;;;;;;;;5524502;26;19927;-73
2024/04/21 04:30:34;;;;;;;;;;;;;;;;;;5525788;25;19931;-74
2024/04/21 04:33:00;;;;;;;;;;;;;;;;;;5524302;26;19938;-73
2024/04/21 04:35:26;;;;;;;;;;;;;;;;;;5524342;26;19935;-74
2024/04/21 04:37:52;;;;;;;;;;;;;;;;;;5525933;26;19934;-74
2024/04/21 04:40:18;;;;;;;;;;;;;;;;;;5526111;26;19951;-74
2024/04/21 04:42:44;;;;;;;;;;;;;;;;;;5523983;25;19936;-74
2024/04/21 04:45:10;;;;;;;;;;;;;;;;;;5525514;25;20050;-75
2024/04/21 04:47:36;;;;;;;;;;;;;;;;;;5525931;26;19974;-74
2024/04/21 04:50:02;;;;;;;;;;;;;;;;;;5525409;26;19939;-75
2024/04/21 04:52:28;;;;;;;;;;;;;;;;;;5529370;26;19996;-76
2024/04/21 04:54:54;;;;;;;;;;;;;;;;;;5529719;26;19934;-75
2024/04/21 04:57:20;;;;;;;;;;;;;;;;;;5529842;26;19939;-75
2024/04/21 04:59:46;;;;;;;;;;;;;;;;;;5529140;26;19927;-74
2024/04/21 05:02:12;;;;;;;;;;;;;;;;;;5529607;26;20375;-74
2024/04/21 05:04:38;;;;;;;;;;;;;;;;;;5527781;26;20397;-74
2024/04/21 05:07:04;;;;;;;;;;;;;;;;;;5528935;26;20312;-74
2024/04/21 05:09:30;;;;;;;;;;;;;;;;;;5527583;26;19927;-75
2024/04/21 05:11:56;;;;;;;;;;;;;;;;;;5529572;26;19927;-75
2024/04/21 05:14:21;;;;;;;;;;;;;;;;;;5526927;26;19928;-75
2024/04/21 05:16:47;;;;;;;;;;;;;;;;;;5529257;26;19928;-76
2024/04/21 05:19:13;;;;;;;;;;;;;;;;;;5528713;26;19939;-75
2024/04/21 05:21:40;;;;;;;;;;;;;;;;;;5527329;26;19959;-74
2024/04/21 05:24:05;;;;;;;;;;;;;;;;;;5529239;26;19996;-75
2024/04/21 05:26:31;;;;;;;;;;;;;;;;;;5526911;26;19934;-73
2024/04/21 05:28:58;;;;;;;;;;;;;;;;;;5529308;26;19932;-73
2024/04/21 05:31:23;;;;;;;;;;;;;;;;;;5527296;26;19934;-73
2024/04/21 05:33:49;;;;;;;;;;;;;;;;;;5526793;26;20256;-75
2024/04/21 05:36:15;;;;;;;;;;;;;;;;;;5527485;26;19935;-75
2024/04/21 05:38:41;;;;;;;;;;;;;;;;;;5528994;26;19931;-75
2024/04/21 05:41:07;;;;;;;;;;;;;;;;;;5528706;26;19927;-75
2024/04/21 05:43:33;;;;;;;;;;;;;;;;;;5597368;25;19994;-74
2024/04/21 05:45:59;;;;;;;;;;;;;;;;;;5571083;25;19938;-75
2024/04/21 05:48:25;;;;;;;;;;;;;;;;;;5604049;25;19945;-75
2024/04/21 05:50:51;;;;;;;;;;;;;;;;;;5604477;25;20371;-77
2024/04/21 05:53:17;;;;;;;;;;;;;;;;;;5604567;25;19930;-76
2024/04/21 05:55:43;;;;;;;;;;;;;;;;;;5604023;25;19960;-75
2024/04/21 05:58:09;;;;;;;;;;;;;;;;;;5571041;25;19933;-74
2024/04/21 06:00:35;;;;;;;;;;;;;;;;;;5604362;25;19926;-74
2024/04/21 06:03:01;;;;;;;;;;;;;;;;;;5603796;25;19938;-74
2024/04/21 06:05:27;;;;;;;;;;;;;;;;;;5604384;25;19927;-75
2024/04/21 06:07:53;;;;;;;;;;;;;;;;;;5570779;25;19930;-75
2024/04/21 06:10:19;;;;;;;;;;;;;;;;;;5603671;25;19993;-76
2024/04/21 06:12:45;;;;;;;;;;;;;;;;;;5604233;25;19926;-75
2024/04/21 06:15:11;;;;;;;;;;;;;;;;;;5604269;25;20358;-76
2024/04/21 06:17:37;;;;;;;;;;;;;;;;;;5570182;25;20426;-75
2024/04/21 06:20:03;;;;;;;;;;;;;;;;;;5604039;25;19926;-76
2024/04/21 06:22:29;;;;;;;;;;;;;;;;;;5603431;25;19926;-76
2024/04/21 06:24:55;;;;;;;;;;;;;;;;;;5570479;25;19927;-75
2024/04/21 06:27:21;;;;;;;;;;;;;;;;;;5603981;25;19965;-74
2024/04/21 06:29:47;;;;;;;;;;;;;;;;;;5603631;25;19937;-74
2024/04/21 06:32:13;;;;;;;;;;;;;;;;;;5570342;25;19926;-74
2024/04/21 06:34:39;;;;;;;;;;;;;;;;;;5570240;25;19927;-73
2024/04/21 06:37:05;;;;;;;;;;;;;;;;;;5603467;25;19937;-74
2024/04/21 06:39:31;;;;;;;;;;;;;;;;;;5570406;25;19978;-74
2024/04/21 06:41:57;;;;;;;;;;;;;;;;;;5603465;25;20363;-75
2024/04/21 06:44:23;;;;;;;;;;;;;;;;;;5603293;25;19926;-76
2024/04/21 06:46:49;;;;;;;;;;;;;;;;;;5603558;25;19931;-75
2024/04/21 06:49:15;;;;;;;;;;;;;;;;;;5570120;25;20271;-74
2024/04/21 06:51:41;;;;;;;;;;;;;;;;;;5569624;25;20289;-74
2024/04/21 06:54:07;;;;;;;;;;;;;;;;;;5603538;25;19934;-75
2024/04/21 06:56:33;;;;;;;;;;;;;;;;;;5570157;25;19926;-76
2024/04/21 06:58:59;;;;;;;;;;;;;;;;;;5569529;25;19933;-75
2024/04/21 07:01:24;;;;;;;;;;;;;;;;;;5569997;25;19926;-75
2024/04/21 07:03:50;;;;;;;;;;;;;;;;;;5569769;25;19926;-74
2024/04/21 07:06:16;;;;;;;;;;;;;;;;;;5602884;25;19933;-74
2024/04/21 07:08:42;;;;;;;;;;;;;;;;;;5603318;25;19931;-74
2024/04/21 07:11:08;;;;;;;;;;;;;;;;;;5603467;25;20366;-75
2024/04/21 07:13:35;;;;;;;;;;;;;;;;;;5568632;25;19989;-75
2024/04/21 07:16:01;;;;;;;;;;;;;;;;;;5603269;25;19926;-76
2024/04/21 07:18:27;;;;;;;;;;;;;;;;;;5603108;25;19932;-75
2024/04/21 07:20:53;;;;;;;;;;;;;;;;;;5602796;25;20263;-76
2024/04/21 07:23:19;;;;;;;;;;;;;;;;;;5603060;25;19926;-74
2024/04/21 07:25:45;;;;;;;;;;;;;;;;;;5602638;25;19927;-74
2024/04/21 07:28:11;;;;;;;;;;;;;;;;;;5603134;25;19927;-75
2024/04/21 07:30:37;;;;;;;;;;;;;;;;;;5603083;25;20389;-75
2024/04/21 07:33:03;;;;;;;;;;;;;;;;;;5602501;25;20254;-75
2024/04/21 07:35:29;;;;;;;;;;;;;;;;;;5602917;25;19927;-75
2024/04/21 07:37:55;;;;;;;;;;;;;;;;;;5602871;25;19934;-77
2024/04/21 07:40:21;;;;;;;;;;;;;;;;;;5602506;25;19938;-75
2024/04/21 07:42:47;;;;;;;;;;;;;;;;;;5540781;25;19934;-76
2024/04/21 07:45:13;;;;;;;;;;;;;;;;;;5527234;26;20427;-74
2024/04/21 07:47:39;;;;;;;;;;;;;;;;;;5524786;26;19932;-75
2024/04/21 07:50:05;;;;;;;;;;;;;;;;;;5527021;26;19938;-76
2024/04/21 07:52:31;;;;;;;;;;;;;;;;;;5525290;26;19939;-76
2024/04/21 07:54:57;;;;;;;;;;;;;;;;;;5524770;26;19931;-76
2024/04/21 07:57:23;;;;;;;;;;;;;;;;;;5526814;26;19932;-76
2024/04/21 07:59:49;;;;;;;;;;;;;;;;;;5526917;26;19995;-75
2024/04/21 08:02:15;;;;;;;;;;;;;;;;;;5524413;26;19942;-74
2024/04/21 08:04:41;;;;;;;;;;;;;;;;;;5526941;25;19932;-75
2024/04/21 08:07:07;;;;;;;;;;;;;;;;;;5524961;26;19977;-75
2024/04/21 08:09:34;;;;;;;;;;;;;;;;;;5526307;26;19927;-76
2024/04/21 08:12:01;;;;;;;;;;;;;;;;;;5526814;25;19934;-76
2024/04/21 08:14:26;;;;;;;;;;;;;;;;;;5526820;25;19935;-75
2024/04/21 08:16:53;;;;;;;;;;;;;;;;;;5526089;26;19933;-75
2024/04/21 08:19:19;;;;;;;;;;;;;;;;;;5526682;25;19927;-75
2024/04/21 08:21:46;;;;;;;;;;;;;;;;;;5524521;26;19935;-75
2024/04/21 08:24:12;;;;;;;;;;;;;;;;;;5524161;26;19934;-74
2024/04/21 08:26:38;;;;;;;;;;;;;;;;;;5528134;26;19927;-74
2024/04/21 08:29:04;;;;;;;;;;;;;;;;;;5529606;26;19928;-74
2024/04/21 08:31:29;;;;;;;;;;;;;;;;;;5530151;26;19938;-74
2024/04/21 08:33:55;;;;;;;;;;;;;;;;;;5530062;26;19928;-75
2024/04/21 08:36:21;;;;;;;;;;;;;;;;;;5529641;26;19933;-75
2024/04/21 08:38:47;;;;;;;;;;;;;;;;;;5530079;26;19934;-75
2024/04/21 08:41:16;;;;;;;;;;;;;;;;;;5528131;26;20267;-75
2024/04/21 08:43:42;;;;;;;;;;;;;;;;;;5601784;25;19934;-75
2024/04/21 08:46:08;;;;;;;;;;;;;;;;;;5605423;25;20255;-76
2024/04/21 08:48:34;;;;;;;;;;;;;;;;;;5605381;25;19926;-75
2024/04/21 08:51:00;;;;;;;;;;;;;;;;;;5605059;25;19927;-76
2024/04/21 08:53:26;;;;;;;;;;;;;;;;;;5605532;25;20351;-74
2024/04/21 08:55:52;;;;;;;;;;;;;;;;;;5605161;25;19933;-76
2024/04/21 08:58:18;;;;;;;;;;;;;;;;;;5571363;25;19930;-75
2024/04/21 09:00:44;;;;;;;;;;;;;;;;;;5571798;25;19958;-75
2024/04/21 09:03:10;;;;;;;;;;;;;;;;;;5605278;25;19930;-74
2024/04/21 09:05:36;;;;;;;;;;;;;;;;;;5571370;25;19926;-74
2024/04/21 09:08:02;;;;;;;;;;;;;;;;;;5605485;25;19933;-75
2024/04/21 09:10:28;;;;;;;;;;;;;;;;;;5571830;25;19933;-75
2024/04/21 09:12:54;;;;;;;;;;;;;;;;;;5604825;25;19926;-76
2024/04/21 09:15:20;;;;;;;;;;;;;;;;;;5605123;25;19926;-75
2024/04/21 09:17:45;;;;;;;;;;;;;;;;;;5571571;25;19994;-75
2024/04/21 09:20:11;;;;;;;;;;;;;;;;;;5604596;25;19933;-75
2024/04/21 09:22:37;;;;;;;;;;;;;;;;;;5571458;25;19934;-74
2024/04/21 09:25:03;;;;;;;;;;;;;;;;;;5571329;25;19927;-74
2024/04/21 09:27:29;;;;;;;;;;;;;;;;;;5604352;25;19938;-74
2024/04/21 09:29:58;;;;;;;;;;;;;;;;;;5604851;25;20288;-74
2024/04/21 09:32:24;;;;;;;;;;;;;;;;;;5604205;25;19926;-74
2024/04/21 09:34:50;;;;;;;;;;;;;;;;;;5604622;25;20373;-73
2024/04/21 09:37:17;;;;;;;;;;;;;;;;;;5570820;25;20034;-74
2024/04/21 09:39:43;;;;;;;;;;;;;;;;;;5604155;25;19958;-74
2024/04/21 09:42:09;;;;;;;;;;;;;;;;;;5570814;25;19958;-74
2024/04/21 09:44:35;;;;;;;;;;;;;;;;;;5570748;25;19927;-75
2024/04/21 09:47:01;;;;;;;;;;;;;;;;;;5570274;25;19930;-75
2024/04/21 09:49:27;;;;;;;;;;;;;;;;;;5570581;25;19938;-75
2024/04/21 09:51:53;;;;;;;;;;;;;;;;;;5570639;25;19931;-75
2024/04/21 09:54:19;;;;;;;;;;;;;;;;;;5603761;25;19927;-75
2024/04/21 09:56:46;;;;;;;;;;;;;;;;;;5604018;25;19926;-75
2024/04/21 09:59:12;;;;;;;;;;;;;;;;;;5604215;25;19926;-75
2024/04/21 10:01:38;;;;;;;;;;;;;;;;;;5603610;25;19934;-75
2024/04/21 10:04:04;;;;;;;;;;;;;;;;;;5604127;25;20266;-75
2024/04/21 10:06:30;;;;;;;;;;;;;;;;;;5604037;25;19926;-76
2024/04/21 10:08:56;;;;;;;;;;;;;;;;;;5603461;25;19931;-76
2024/04/21 10:11:22;;;;;;;;;;;;;;;;;;5570506;25;19926;-76
2024/04/21 10:13:48;;;;;;;;;;;;;;;;;;5603831;25;19938;-75
2024/04/21 10:16:14;;;;;;;;;;;;;;;;;;5569800;25;20043;-75
2024/04/21 10:18:40;;;;;;;;;;;;;;;;;;5603735;25;19933;-76
2024/04/21 10:21:06;;;;;;;;;;;;;;;;;;5603830;25;20319;-75
2024/04/21 10:23:32;;;;;;;;;;;;;;;;;;5603111;25;20356;-75
2024/04/21 10:25:58;;;;;;;;;;;;;;;;;;5603779;25;19927;-74
2024/04/21 10:28:24;;;;;;;;;;;;;;;;;;5603681;25;19996;-74
2024/04/21 10:30:51;;;;;;;;;;;;;;;;;;5603207;25;19954;-75
2024/04/21 10:33:17;;;;;;;;;;;;;;;;;;5570222;25;19934;-75
2024/04/21 10:35:43;;;;;;;;;;;;;;;;;;5603134;25;19926;-75
2024/04/21 10:38:09;;;;;;;;;;;;;;;;;;5570108;25;19927;-75
2024/04/21 10:40:34;;;;;;;;;;;;;;;;;;5570035;25;19970;-76
2024/04/21 10:43:00;;;;;;;;;;;;;;;;;;5569569;25;20366;-75
2024/04/21 10:45:28;;;;;;;;;;;;;;;;;;5570150;25;20250;-75
2024/04/21 10:47:53;;;;;;;;;;;;;;;;;;5569145;25;19933;-76
2024/04/21 10:50:21;;;;;;;;;;;;;;;;;;5603348;25;19926;-75
2024/04/21 10:52:47;;;;;;;;;;;;;;;;;;5570363;25;19966;-76
2024/04/21 10:55:14;;;;;;;;;;;;;;;;;;5603673;25;19926;-75
2024/04/21 10:57:40;;;;;;;;;;;;;;;;;;5603297;25;20362;-76
2024/04/21 11:00:06;;;;;;;;;;;;;;;;;;5603543;25;19947;-76
2024/04/21 11:02:32;;;;;;;;;;;;;;;;;;5603534;25;19927;-77
2024/04/21 11:04:58;;;;;;;;;;;;;;;;;;5569633;25;19926;-77
2024/04/21 11:07:24;;;;;;;;;;;;;;;;;;5603520;25;19938;-77
2024/04/21 11:09:50;;;;;;;;;;;;;;;;;;5603588;25;19926;-77
2024/04/21 11:12:16;;;;;;;;;;;;;;;;;;5603041;25;19926;-76
2024/04/21 11:14:42;;;;;;;;;;;;;;;;;;5603449;25;19926;-76
2024/04/21 11:17:08;;;;;;;;;;;;;;;;;;5570001;25;19934;-76
2024/04/21 11:19:34;;;;;;;;;;;;;;;;;;5602776;25;20248;-77
2024/04/21 11:22:00;;;;;;;;;;;;;;;;;;5603221;25;19949;-76
2024/04/21 11:24:26;;;;;;;;;;;;;;;;;;5569757;25;19926;-76
2024/04/21 11:26:52;;;;;;;;;;;;;;;;;;5602610;25;19975;-76
2024/04/21 11:29:18;;;;;;;;;;;;;;;;;;5603167;25;19952;-74
2024/04/21 11:31:44;;;;;;;;;;;;;;;;;;5602871;25;19926;-76
2024/04/21 11:34:10;;;;;;;;;;;;;;;;;;5569179;25;19937;-76
2024/04/21 11:36:36;;;;;;;;;;;;;;;;;;5569387;25;19926;-76
2024/04/21 11:39:03;;;;;;;;;;;;;;;;;;5602678;25;19926;-77
2024/04/21 11:41:29;;;;;;;;;;;;;;;;;;5602647;25;19958;-76
2024/04/21 11:43:55;;;;;;;;;;;;;;;;;;5602962;25;19976;-77
2024/04/21 11:46:21;;;;;;;;;;;;;;;;;;5602545;25;19927;-77
2024/04/21 11:48:46;;;;;;;;;;;;;;;;;;5569733;25;19934;-79
2024/04/21 11:51:12;;;;;;;;;;;;;;;;;;5602936;25;19934;-77
2024/04/21 11:53:38;;;;;;;;;;;;;;;;;;5568965;25;19994;-77
2024/04/21 11:56:04;;;;;;;;;;;;;;;;;;5602844;25;20382;-78
2024/04/21 11:58:33;;;;;;;;;;;;;;;;;;5603189;25;20271;-78
2024/04/21 12:00:59;;;;;;;;;;;;;;;;;;5605966;25;19937;-77
2024/04/21 12:03:25;;;;;;;;;;;;;;;;;;5572907;25;20359;-77
2024/04/21 12:05:51;;;;;;;;;;;;;;;;;;5607752;25;20438;-78
2024/04/21 12:08:17;;;;;;;;;;;;;;;;;;5606068;25;20251;-78
2024/04/21 12:10:43;;;;;;;;;;;;;;;;;;5574170;25;19931;-77
2024/04/21 12:13:09;;;;;;;;;;;;;;;;;;5607140;25;20052;-77
2024/04/21 12:15:35;;;;;;;;;;;;;;;;;;5577574;25;19926;-78
2024/04/21 12:18:01;;;;;;;;;;;;;;;;;;5611170;25;19926;-78
2024/04/21 12:20:27;;;;;;;;;;;;;;;;;;5609667;25;19934;-78
2024/04/21 12:22:53;;;;;;;;;;;;;;;;;;5613629;25;19928;-78
2024/04/21 12:25:19;;;;;;;;;;;;;;;;;;5609860;25;20371;-76
2024/04/21 12:27:45;;;;;;;;;;;;;;;;;;5574165;25;19937;-76
2024/04/21 12:30:12;;;;;;;;;;;;;;;;;;5572594;25;19931;-76
2024/04/21 12:32:38;;;;;;;;;;;;;;;;;;5572738;25;19938;-75
2024/04/21 12:35:04;;;;;;;;;;;;;;;;;;5605880;25;20369;-78
2024/04/21 12:37:29;;;;;;;;;;;;;;;;;;5605927;25;20251;-79
2024/04/21 12:39:55;;;;;;;;;;;;;;;;;;5606225;25;19938;-78
2024/04/21 12:42:21;;;;;;;;;;;;;;;;;;5605219;25;19926;-79
2024/04/21 12:44:47;;;;;;;;;;;;;;;;;;5606131;25;19927;-78
2024/04/21 12:47:13;;;;;;;;;;;;;;;;;;5605886;25;19934;-77
2024/04/21 12:49:39;;;;;;;;;;;;;;;;;;5605250;25;20363;-76
2024/04/21 12:52:05;;;;;;;;;;;;;;;;;;5605826;25;19930;-77
2024/04/21 12:54:31;;;;;;;;;;;;;;;;;;5605783;25;19934;-78
2024/04/21 12:56:57;;;;;;;;;;;;;;;;;;5571708;25;19933;-78
2024/04/21 12:59:24;;;;;;;;;;;;;;;;;;5605575;25;19926;-76
2024/04/21 13:01:49;;;;;;;;;;;;;;;;;;5605450;25;19959;-77
2024/04/21 13:04:15;;;;;;;;;;;;;;;;;;5605013;25;19926;-77
2024/04/21 13:06:41;;;;;;;;;;;;;;;;;;5571865;25;19933;-76
2024/04/21 13:09:07;;;;;;;;;;;;;;;;;;5605342;25;19926;-78
2024/04/21 13:11:33;;;;;;;;;;;;;;;;;;5604194;25;19927;-79
2024/04/21 13:13:59;;;;;;;;;;;;;;;;;;5572028;25;19930;-77
2024/04/21 13:16:25;;;;;;;;;;;;;;;;;;5571854;25;20354;-80
2024/04/21 13:18:51;;;;;;;;;;;;;;;;;;5571326;25;19960;-78
2024/04/21 13:21:17;;;;;;;;;;;;;;;;;;5605235;25;19938;-77
2024/04/21 13:23:43;;;;;;;;;;;;;;;;;;5605501;25;20314;-76
2024/04/21 13:26:09;;;;;;;;;;;;;;;;;;5604662;25;20252;-76
2024/04/21 13:28:35;;;;;;;;;;;;;;;;;;5571505;25;19993;-76
2024/04/21 13:31:01;;;;;;;;;;;;;;;;;;5571557;25;19938;-77
2024/04/21 13:33:27;;;;;;;;;;;;;;;;;;5604417;25;19926;-75
2024/04/21 13:35:53;;;;;;;;;;;;;;;;;;5604897;25;19926;-76
2024/04/21 13:38:19;;;;;;;;;;;;;;;;;;5604805;25;19933;-78
2024/04/21 13:40:45;;;;;;;;;;;;;;;;;;5571214;25;19926;-77
2024/04/21 13:43:11;;;;;;;;;;;;;;;;;;5571022;25;19970;-75
2024/04/21 13:45:37;;;;;;;;;;;;;;;;;;5604248;25;20386;-77
2024/04/21 13:48:03;;;;;;;;;;;;;;;;;;5604552;25;20051;-78
2024/04/21 13:50:29;;;;;;;;;;;;;;;;;;5604515;25;19926;-76
2024/04/21 13:52:55;;;;;;;;;;;;;;;;;;5604065;25;19935;-76
2024/04/21 13:55:21;;;;;;;;;;;;;;;;;;5604449;25;19937;-77
2024/04/21 13:57:47;;;;;;;;;;;;;;;;;;5604329;25;19946;-76
2024/04/21 14:00:13;;;;;;;;;;;;;;;;;;5603834;25;19933;-75
2024/04/21 14:02:39;;;;;;;;;;;;;;;;;;5604150;25;19931;-76
2024/04/21 14:05:05;;;;;;;;;;;;;;;;;;5570524;25;19974;-75
2024/04/21 14:07:30;;;;;;;;;;;;;;;;;;5603647;25;20366;-76
2024/04/21 14:09:56;;;;;;;;;;;;;;;;;;5570419;25;20259;-77
2024/04/21 14:12:22;;;;;;;;;;;;;;;;;;5603977;25;20019;-76
2024/04/21 14:14:48;;;;;;;;;;;;;;;;;;5570000;25;19926;-76
2024/04/21 14:17:14;;;;;;;;;;;;;;;;;;5603837;25;19934;-75
2024/04/21 14:19:40;;;;;;;;;;;;;;;;;;5603816;25;19926;-76
2024/04/21 14:22:08;;;;;;;;;;;;;;;;;;5568324;25;20355;-75
2024/04/21 14:24:34;;;;;;;;;;;;;;;;;;5603467;25;20288;-76
2024/04/21 14:27:00;;;;;;;;;;;;;;;;;;5603838;25;19926;-76
2024/04/21 14:29:26;;;;;;;;;;;;;;;;;;5603175;25;20378;-75
2024/04/21 14:31:52;;;;;;;;;;;;;;;;;;5570155;25;19926;-75
2024/04/21 14:34:17;;;;;;;;;;;;;;;;;;5603755;25;19934;-75
2024/04/21 14:36:44;;;;;;;;;;;;;;;;;;5603179;25;19926;-76
2024/04/21 14:39:10;;;;;;;;;;;;;;;;;;5603341;25;19926;-76
2024/04/21 14:41:36;;;;;;;;;;;;;;;;;;5569820;25;19994;-76
2024/04/21 14:44:03;;;;;;;;;;;;;;;;;;5603108;25;20374;-76
2024/04/21 14:46:29;;;;;;;;;;;;;;;;;;5603482;25;20439;-76
2024/04/21 14:48:55;;;;;;;;;;;;;;;;;;5603189;25;19938;-75
2024/04/21 14:51:21;;;;;;;;;;;;;;;;;;5603593;25;19942;-75
2024/04/21 14:53:47;;;;;;;;;;;;;;;;;;5603386;25;19927;-75
2024/04/21 14:56:13;;;;;;;;;;;;;;;;;;5603093;25;19926;-75
2024/04/21 14:58:39;;;;;;;;;;;;;;;;;;5603278;25;19930;-76
2024/04/21 15:01:05;;;;;;;;;;;;;;;;;;5603246;25;19934;-74
2024/04/21 15:03:31;;;;;;;;;;;;;;;;;;5602707;25;20398;-74
2024/04/21 15:05:57;;;;;;;;;;;;;;;;;;5603229;25;20381;-74
2024/04/21 15:08:23;;;;;;;;;;;;;;;;;;5603296;25;19926;-75
2024/04/21 15:10:49;;;;;;;;;;;;;;;;;;5602845;25;19934;-75
2024/04/21 15:13:15;;;;;;;;;;;;;;;;;;5603089;25;19927;-76
2024/04/21 15:15:41;;;;;;;;;;;;;;;;;;5603194;25;19950;-76
2024/04/21 15:18:07;;;;;;;;;;;;;;;;;;5602591;25;19937;-76
2024/04/21 15:20:33;;;;;;;;;;;;;;;;;;5569431;25;19926;-76
2024/04/21 15:22:59;;;;;;;;;;;;;;;;;;5602864;25;19930;-75
2024/04/21 15:25:24;;;;;;;;;;;;;;;;;;5568864;25;19926;-76
2024/04/21 15:27:50;;;;;;;;;;;;;;;;;;5569343;25;20248;-76
2024/04/21 15:30:16;;;;;;;;;;;;;;;;;;5602772;25;19926;-75
2024/04/21 15:32:45;;;;;;;;;;;;;;;;;;5568827;25;19938;-75
2024/04/21 15:35:11;;;;;;;;;;;;;;;;;;5602150;25;19933;-76
2024/04/21 15:37:41;;;;;;;;;;;;;;;;;;5602561;25;19927;-74
2024/04/21 15:40:09;;;;;;;;;;;;;;;;;;5568810;25;20343;-75
2024/04/21 15:42:35;;;;;;;;;;;;;;;;;;5602476;25;19926;-76
2024/04/21 15:45:02;;;;;;;;;;;;;;;;;;5601079;25;20455;-75
2024/04/21 15:47:28;;;;;;;;;;;;;;;;;;5602403;25;19934;-75
2024/04/21 15:49:54;;;;;;;;;;;;;;;;;;5602356;25;19926;-75
2024/04/21 15:52:20;;;;;;;;;;;;;;;;;;5568496;25;19926;-76
2024/04/21 15:54:48;;;;;;;;;;;;;;;;;;5602396;25;19934;-77
2024/04/21 15:57:14;;;;;;;;;;;;;;;;;;5602251;25;19928;-76
2024/04/21 15:59:40;;;;;;;;;;;;;;;;;;5601731;25;19938;-75
2024/04/21 16:02:06;;;;;;;;;;;;;;;;;;5568635;25;19930;-76
2024/04/21 16:04:32;;;;;;;;;;;;;;;;;;5602228;25;19927;-75
2024/04/21 16:06:58;;;;;;;;;;;;;;;;;;5568265;25;19926;-77
2024/04/21 16:09:24;;;;;;;;;;;;;;;;;;5602046;25;20366;-77
2024/04/21 16:11:50;;;;;;;;;;;;;;;;;;5568525;25;20275;-76
2024/04/21 16:14:16;;;;;;;;;;;;;;;;;;5601536;25;20004;-75
2024/04/21 16:16:42;;;;;;;;;;;;;;;;;;5601957;25;19941;-77
2024/04/21 16:19:08;;;;;;;;;;;;;;;;;;5602020;25;19926;-77
2024/04/21 16:21:34;;;;;;;;;;;;;;;;;;5601383;25;19994;-77
2024/04/21 16:24:00;;;;;;;;;;;;;;;;;;5601555;25;19946;-76
2024/04/21 16:26:26;;;;;;;;;;;;;;;;;;5601809;25;19936;-77
2024/04/21 16:28:52;;;;;;;;;;;;;;;;;;5601163;25;19927;-75
2024/04/21 16:31:18;;;;;;;;;;;;;;;;;;5568136;25;19934;-76
2024/04/21 16:33:44;;;;;;;;;;;;;;;;;;5601623;25;19926;-76
2024/04/21 16:36:10;;;;;;;;;;;;;;;;;;5601091;25;20545;-76